EDDP/LEJ METAR and TAF weather

Enter ICAO airport designator
Station Type Date Time Source
EDDP METAR 2021/05/12 04:50 UTC NOAA

EDDP 120450Z 28004KT 9000 FEW007 BKN020 13/13 Q1007 TEMPO BKN008


Station Type Date Time Source
EDDP Decoded METAR 2021/05/12 04:50 UTC NOAA

Leipzig-Schkeuditz, Germany (EDDP) 51-25N 012-14E 149M
May 12, 2021 - 12:50 AM EDT / 2021.05.12 0450 UTC
Wind: from the W (280 degrees) at 5 MPH (4 KT):0
Visibility: 5 mile(s):0
Sky conditions: mostly cloudy
Temperature: 55 F (13 C)
Dew Point: 55 F (13 C)
Relative Humidity: 100%
Pressure (altimeter): 29.74 in. Hg (1007 hPa)
ob: EDDP 120450Z 28004KT 9000 FEW007 BKN020 13/13 Q1007 TEMPO BKN008
cycle: 5

Station Type Date Time Source
EDDP TAF 2021/05/11 18:30 UTC NOAA

TAF EDDP 111700Z 1118/1218 31010KT 9999 SCT030 PROB30
TEMPO 1118/1122 4000 TSRA SCT020CB
BECMG 1121/1124 BKN012
TEMPO 1123/1204 4000 -RA BKN005
BECMG 1208/1211 OVC020

Example: see airport list